Time;durP1;ratioP1;P1;durP2;ratioP2;P2;SDS_P1;SDS_P2;PMS_P1;PMS_P2;Temp;Humidity;BMP_temperature;BMP_pressure;BME280_temperature;BME280_humidity;BME280_pressure;Samples;Min_cycle;Max_cycle;Signal;HPM_P1;HPM_P2
2022/08/06 00:00:51;;;;;;;9.45;2.35;;;11.70;99.90;;;;;;4940083;29;20476;-74
2022/08/06 00:03:17;;;;;;;6.32;2.35;;;11.80;99.90;;;;;;4939116;29;20055;-72
2022/08/06 00:05:44;;;;;;;6.00;2.33;;;11.70;99.90;;;;;;4957281;29;20053;-72
2022/08/06 00:08:10;;;;;;;7.72;2.90;;;11.60;99.90;;;;;;4919616;29;20087;-73
2022/08/06 00:10:36;;;;;;;8.77;2.80;;;11.60;99.90;;;;;;4918873;29;20060;-73
2022/08/06 00:13:02;;;;;;;6.28;2.60;;;11.60;99.90;;;;;;4904099;29;20500;-73
2022/08/06 00:15:29;;;;;;;6.63;2.55;;;11.60;99.90;;;;;;4953277;28;20051;-73
2022/08/06 00:17:55;;;;;;;9.25;2.30;;;11.50;99.90;;;;;;4954885;29;20087;-73
2022/08/06 00:20:20;;;;;;;5.00;2.75;;;11.50;99.90;;;;;;4937625;29;20075;-72
2022/08/06 00:22:46;;;;;;;7.32;2.35;;;11.50;99.90;;;;;;4938731;29;20055;-72
2022/08/06 00:25:12;;;;;;;7.20;2.50;;;11.50;99.90;;;;;;4937778;29;20051;-73
2022/08/06 00:27:38;;;;;;;6.45;2.40;;;11.50;99.90;;;;;;4953905;28;20043;-72
2022/08/06 00:30:09;;;;;;;5.45;2.20;;;11.40;99.90;;;;;;4954785;28;20047;-72
2022/08/06 00:32:35;;;;;;;4.78;2.30;;;11.40;99.90;;;;;;4938031;29;20055;-71
2022/08/06 00:35:03;;;;;;;4.65;2.35;;;11.40;99.90;;;;;;4954233;29;20051;-79
2022/08/06 00:37:32;;;;;;;11.20;2.70;;;11.40;99.90;;;;;;4939101;29;20051;-72
2022/08/06 00:40:01;;;;;;;9.45;2.92;;;11.40;99.90;;;;;;4953041;29;20090;-72
2022/08/06 00:42:27;;;;;;;6.70;2.78;;;11.30;99.90;;;;;;4954989;29;20043;-73
2022/08/06 00:44:54;;;;;;;6.43;2.65;;;11.30;99.90;;;;;;4938645;29;20084;-73
2022/08/06 00:47:20;;;;;;;;;;;11.30;99.90;;;;;;4954484;28;20439;-73
2022/08/06 00:49:47;;;;;;;7.75;2.67;;;11.30;99.90;;;;;;4935105;29;19954;-73
2022/08/06 00:52:13;;;;;;;7.05;2.30;;;11.20;99.90;;;;;;4952402;29;20090;-73
2022/08/06 00:54:39;;;;;;;6.50;2.80;;;11.20;99.90;;;;;;4938458;29;20225;-73
2022/08/06 00:57:05;;;;;;;8.35;2.70;;;11.20;99.90;;;;;;4939708;29;20082;-75
2022/08/06 00:59:30;;;;;;;6.05;2.70;;;11.10;99.90;;;;;;4922790;29;20057;-73
2022/08/06 01:01:56;;;;;;;7.00;2.40;;;11.10;99.90;;;;;;4937382;29;20047;-72
2022/08/06 01:04:22;;;;;;;6.90;2.55;;;11.10;99.90;;;;;;4954045;28;20090;-75
2022/08/06 01:06:48;;;;;;;8.57;2.90;;;11.10;99.90;;;;;;4939752;29;20112;-73
2022/08/06 01:09:13;;;;;;;6.50;2.85;;;11.00;99.90;;;;;;4944371;29;20065;-72
2022/08/06 01:11:40;;;;;;;8.77;2.60;;;11.00;99.90;;;;;;4960955;29;20055;-72
2022/08/06 01:14:06;;;;;;;11.48;3.17;;;11.00;99.90;;;;;;4939492;29;20476;-77
2022/08/06 01:16:51;;;;;;;6.10;3.15;;;11.00;99.90;;;;;;4959187;28;20055;-71
2022/08/06 01:19:22;;;;;;;7.90;3.30;;;11.00;99.90;;;;;;4944467;29;20078;-72
2022/08/06 01:22:05;;;;;;;6.20;2.60;;;10.90;99.90;;;;;;4961094;29;20139;-73
2022/08/06 01:24:47;;;;;;;6.85;2.55;;;10.90;99.90;;;;;;4959483;29;20618;-71
2022/08/06 01:27:47;;;;;;;4.60;2.72;;;10.80;99.90;;;;;;4940763;29;20058;-72
2022/08/06 01:30:21;;;;;;;7.82;2.90;;;10.90;99.90;;;;;;4954574;29;20126;-72
2022/08/06 01:33:01;;;;;;;6.75;2.65;;;10.80;99.90;;;;;;4940411;29;20050;-72
2022/08/06 01:35:37;;;;;;;7.95;2.85;;;10.80;99.90;;;;;;4943789;29;20066;-72
2022/08/06 01:38:09;;;;;;;4.40;2.70;;;10.70;99.90;;;;;;4951906;29;20066;-73
2022/08/06 01:40:39;;;;;;;10.57;2.85;;;10.80;99.90;;;;;;4960226;28;20555;-71
2022/08/06 01:43:09;;;;;;;9.30;2.65;;;10.80;99.90;;;;;;4928866;29;20492;-71
2022/08/06 01:45:37;;;;;;;5.53;3.08;;;10.70;99.90;;;;;;4941530;29;20066;-72
2022/08/06 01:48:06;;;;;;;8.23;3.28;;;10.70;99.90;;;;;;4941733;29;20055;-72
2022/08/06 01:50:45;;;;;;;11.18;3.22;;;10.70;99.90;;;;;;4955143;28;20449;-71
2022/08/06 01:53:15;;;;;;;7.10;3.03;;;10.60;99.90;;;;;;4954891;29;20047;-76
2022/08/06 01:55:46;;;;;;;9.32;3.50;;;10.60;99.90;;;;;;4937522;29;20043;-72
2022/08/06 01:58:15;;;;;;;7.97;3.15;;;10.60;99.90;;;;;;4955282;29;20279;-79
2022/08/06 02:00:44;;;;;;;11.10;3.63;;;10.60;99.90;;;;;;4939932;29;20401;-70
2022/08/06 02:03:27;;;;;;;8.23;3.35;;;10.50;99.90;;;;;;4937659;29;20055;-71
2022/08/06 02:05:56;;;;;;;6.90;2.90;;;10.50;99.90;;;;;;4953190;28;20051;-73
2022/08/06 02:08:33;;;;;;;6.38;3.60;;;10.50;99.90;;;;;;4938820;29;20062;-75
2022/08/06 02:11:01;;;;;;;10.27;3.15;;;10.50;99.90;;;;;;4951986;29;20106;-73
2022/08/06 02:13:32;;;;;;;7.30;3.30;;;10.50;99.90;;;;;;4953088;28;20054;-73
2022/08/06 02:16:00;;;;;;;6.78;3.30;;;10.40;99.90;;;;;;4953135;29;20069;-72
2022/08/06 02:18:32;;;;;;;7.72;3.42;;;10.40;99.90;;;;;;4919140;29;20051;-72
2022/08/06 02:21:07;;;;;;;7.05;2.88;;;10.40;99.90;;;;;;4922629;29;20095;-72
2022/08/06 02:23:35;;;;;;;10.07;3.38;;;10.30;99.90;;;;;;4954430;29;20055;-71
2022/08/06 02:26:04;;;;;;;6.25;3.17;;;10.40;99.90;;;;;;4924628;29;20058;-72
2022/08/06 02:28:33;;;;;;;8.00;3.45;;;10.30;99.90;;;;;;4940106;29;20051;-73
2022/08/06 02:31:01;;;;;;;8.00;3.50;;;10.30;99.90;;;;;;4956428;29;20628;-71
2022/08/06 02:33:27;;;;;;;6.90;3.53;;;10.30;99.90;;;;;;4955044;29;20117;-72
2022/08/06 02:36:12;;;;;;;8.02;3.60;;;10.30;99.90;;;;;;4955741;28;20130;-72
2022/08/06 02:38:45;;;;;;;9.82;3.40;;;10.30;99.90;;;;;;4919211;29;20561;-73
2022/08/06 02:41:23;;;;;;;9.60;3.13;;;10.20;99.90;;;;;;4939763;29;20083;-72
2022/08/06 02:44:15;;;;;;;10.20;4.10;;;10.10;99.90;;;;;;4954806;28;20043;-74
2022/08/06 02:46:49;;;;;;;7.40;3.60;;;10.10;99.90;;;;;;4951673;29;20049;-71
2022/08/06 02:49:27;;;;;;;10.20;3.55;;;10.10;99.90;;;;;;4921772;29;20130;-71
2022/08/06 02:52:15;;;;;;;10.07;4.00;;;10.10;99.90;;;;;;4936562;29;20066;-72
2022/08/06 02:55:09;;;;;;;10.35;4.18;;;10.10;99.90;;;;;;4951084;29;20055;-72
2022/08/06 02:57:44;;;;;;;8.73;4.10;;;10.00;99.90;;;;;;4947985;28;20055;-71
2022/08/06 03:00:14;;;;;;;7.90;3.33;;;10.00;99.90;;;;;;4951651;29;20043;-71
2022/08/06 03:02:43;;;;;;;7.50;3.53;;;10.00;99.90;;;;;;4904792;29;20534;-72
2022/08/06 03:05:15;;;;;;;7.43;4.00;;;9.90;99.90;;;;;;4936009;29;20059;-71
2022/08/06 03:07:44;;;;;;;8.68;4.03;;;9.90;99.90;;;;;;4952554;29;20138;-71
2022/08/06 03:10:11;;;;;;;11.63;3.80;;;9.90;99.90;;;;;;4951912;29;20051;-71
2022/08/06 03:12:37;;;;;;;;;;;9.90;99.90;;;;;;4936276;29;20102;-71
2022/08/06 03:15:06;;;;;;;10.60;4.20;;;9.90;99.90;;;;;;4933353;29;19934;-71
2022/08/06 03:17:33;;;;;;;10.05;4.32;;;9.80;99.90;;;;;;4932945;29;20424;-71
2022/08/06 03:20:00;;;;;;;;;;;9.80;99.90;;;;;;4927909;29;20205;-71
2022/08/06 03:22:28;;;;;;;9.00;3.80;;;9.80;99.90;;;;;;4935499;29;20054;-72
2022/08/06 03:24:55;;;;;;;11.52;3.97;;;9.80;99.90;;;;;;4951478;29;20086;-71
2022/08/06 03:27:22;;;;;;;9.80;4.38;;;9.80;99.90;;;;;;4936859;29;20448;-77
2022/08/06 03:29:50;;;;;;;7.47;4.20;;;9.80;99.90;;;;;;4935107;29;20105;-71
2022/08/06 03:32:16;;;;;;;10.77;4.20;;;9.80;99.90;;;;;;4951305;29;20058;-72
2022/08/06 03:34:43;;;;;;;6.78;4.28;;;9.80;99.90;;;;;;4935795;29;20411;-71
2022/08/06 03:37:10;;;;;;;11.48;4.30;;;9.80;99.90;;;;;;4937514;29;20086;-71
2022/08/06 03:39:39;;;;;;;8.95;4.32;;;9.80;99.90;;;;;;4950543;29;20043;-71
2022/08/06 03:42:05;;;;;;;11.95;4.55;;;9.80;99.90;;;;;;4934981;29;20503;-72
2022/08/06 03:44:31;;;;;;;9.38;4.28;;;9.80;99.90;;;;;;4918673;29;20050;-71
2022/08/06 03:47:09;;;;;;;10.65;4.53;;;9.80;99.90;;;;;;4934452;29;20048;-72
2022/08/06 03:49:44;;;;;;;7.53;4.00;;;9.80;99.90;;;;;;4918447;29;20043;-72
2022/08/06 03:52:18;;;;;;;9.50;4.00;;;9.80;99.90;;;;;;4931370;29;20540;-72
2022/08/06 03:54:47;;;;;;;8.18;3.78;;;9.90;99.90;;;;;;4933247;29;20402;-73
2022/08/06 03:57:31;;;;;;;9.30;4.18;;;9.90;99.90;;;;;;4939684;29;20189;-73
2022/08/06 04:00:00;;;;;;;8.07;3.92;;;9.90;99.90;;;;;;4952671;29;20050;-72
2022/08/06 04:02:40;;;;;;;10.45;4.20;;;9.90;99.90;;;;;;4924309;29;20145;-72
2022/08/06 04:05:07;;;;;;;13.07;4.65;;;9.90;99.90;;;;;;4942046;29;20051;-73
2022/08/06 04:07:33;;;;;;;8.48;4.25;;;9.90;99.90;;;;;;4929028;29;20167;-72
2022/08/06 04:10:03;;;;;;;8.65;3.90;;;9.90;99.90;;;;;;4942222;29;20058;-72
2022/08/06 04:12:32;;;;;;;9.70;4.35;;;9.90;99.90;;;;;;4966612;29;20066;-73
2022/08/06 04:15:00;;;;;;;11.25;4.20;;;10.00;99.90;;;;;;4966162;29;20051;-71
2022/08/06 04:17:27;;;;;;;8.10;4.32;;;9.90;99.90;;;;;;4948605;29;20052;-76
2022/08/06 04:19:54;;;;;;;10.18;4.47;;;10.00;99.90;;;;;;4949138;29;20082;-71
2022/08/06 04:22:20;;;;;;;8.52;4.72;;;10.00;99.90;;;;;;4966355;29;20106;-71
2022/08/06 04:24:47;;;;;;;10.13;4.32;;;10.00;99.90;;;;;;4963278;29;20118;-73
2022/08/06 04:27:14;;;;;;;11.68;5.05;;;10.00;99.90;;;;;;4918332;29;20055;-71
2022/08/06 04:29:41;;;;;;;11.38;4.70;;;10.00;99.90;;;;;;4967704;28;20043;-72
2022/08/06 04:32:09;;;;;;;8.98;5.18;;;10.00;99.90;;;;;;4968520;29;20082;-73
2022/08/06 04:34:38;;;;;;;10.38;5.20;;;10.00;99.90;;;;;;4954527;29;20191;-70
2022/08/06 04:37:06;;;;;;;10.30;5.00;;;10.00;99.90;;;;;;4968027;29;20062;-72
2022/08/06 04:39:33;;;;;;;11.93;5.22;;;10.00;99.90;;;;;;4930855;29;20048;-70
2022/08/06 04:41:59;;;;;;;9.65;4.95;;;10.00;99.90;;;;;;4943043;29;20051;-72
2022/08/06 04:44:27;;;;;;;9.60;5.30;;;10.00;99.90;;;;;;4936403;29;20376;-72
2022/08/06 04:46:54;;;;;;;10.20;5.53;;;10.10;99.90;;;;;;4922529;29;20048;-71
2022/08/06 04:49:20;;;;;;;10.85;5.55;;;10.00;99.90;;;;;;4938158;29;20051;-71
2022/08/06 04:51:47;;;;;;;12.30;6.05;;;10.20;99.90;;;;;;4920482;29;20059;-71
2022/08/06 04:54:14;;;;;;;15.60;6.53;;;10.30;99.90;;;;;;4920264;29;20457;-70
2022/08/06 04:56:41;;;;;;;13.70;7.22;;;10.30;99.90;;;;;;4915238;29;20054;-73
2022/08/06 04:59:11;;;;;;;18.83;8.20;;;10.50;99.90;;;;;;4935806;29;20090;-72
2022/08/06 05:01:38;;;;;;;13.38;7.82;;;10.60;99.90;;;;;;4934821;29;20062;-71
2022/08/06 05:04:05;;;;;;;17.10;7.95;;;10.80;99.90;;;;;;4919421;29;20051;-72
2022/08/06 05:06:44;;;;;;;12.50;7.00;;;10.90;99.90;;;;;;4918826;29;20051;-77
2022/08/06 05:09:17;;;;;;;10.10;6.50;;;11.20;99.90;;;;;;4947872;29;20075;-71
2022/08/06 05:11:50;;;;;;;15.45;8.13;;;11.40;99.90;;;;;;4936406;29;20143;-71
2022/08/06 05:14:24;;;;;;;11.63;7.00;;;11.60;99.90;;;;;;4935026;29;20059;-72
2022/08/06 05:16:51;;;;;;;12.95;7.18;;;11.70;99.90;;;;;;4919189;29;20043;-72
2022/08/06 05:19:23;;;;;;;12.50;7.95;;;11.60;99.90;;;;;;4946490;29;20130;-75
2022/08/06 05:21:52;;;;;;;12.35;6.82;;;11.70;99.90;;;;;;4935080;29;20055;-73
2022/08/06 05:24:18;;;;;;;14.63;7.20;;;11.70;99.90;;;;;;4953529;28;20047;-78
2022/08/06 05:26:44;;;;;;;14.10;7.03;;;11.90;99.90;;;;;;4953600;29;20051;-70
2022/08/06 05:29:10;;;;;;;11.82;6.43;;;12.00;99.90;;;;;;4937588;29;20052;-71
2022/08/06 05:31:39;;;;;;;13.20;6.07;;;12.20;99.90;;;;;;4935390;29;20051;-76
2022/08/06 05:34:09;;;;;;;13.38;6.30;;;12.30;99.90;;;;;;4936723;29;20048;-71
2022/08/06 05:36:34;;;;;;;11.63;5.65;;;12.50;99.90;;;;;;4937846;29;20093;-77
2022/08/06 05:39:00;;;;;;;8.52;5.05;;;12.70;99.90;;;;;;4937870;29;20410;-71
2022/08/06 05:41:30;;;;;;;10.60;5.20;;;12.80;99.90;;;;;;4946824;29;20114;-72
2022/08/06 05:43:58;;;;;;;9.82;4.90;;;13.00;99.90;;;;;;4918977;29;20712;-72
2022/08/06 05:46:26;;;;;;;10.63;5.13;;;13.20;99.90;;;;;;4929939;29;20121;-72
2022/08/06 05:49:02;;;;;;;8.52;5.18;;;13.30;99.90;;;;;;4938435;29;20127;-71
2022/08/06 05:52:00;;;;;;;8.80;5.20;;;13.40;99.90;;;;;;4947342;29;20047;-71
2022/08/06 05:54:33;;;;;;;11.18;6.05;;;13.50;99.90;;;;;;4932168;29;20056;-71
2022/08/06 05:57:06;;;;;;;11.38;5.10;;;13.50;99.90;;;;;;4933286;29;20211;-70
2022/08/06 05:59:35;;;;;;;12.10;5.30;;;13.60;99.90;;;;;;4929229;29;20126;-71
2022/08/06 06:02:02;;;;;;;8.90;4.90;;;13.50;99.90;;;;;;4917459;29;20055;-72
2022/08/06 06:04:29;;;;;;;12.45;5.15;;;13.40;99.90;;;;;;4917028;29;20055;-71
2022/08/06 06:06:55;;;;;;;9.98;5.53;;;13.40;99.90;;;;;;4918241;29;20194;-72
2022/08/06 06:09:23;;;;;;;9.80;5.18;;;13.30;99.90;;;;;;4917754;29;20483;-77
2022/08/06 06:11:49;;;;;;;9.48;4.63;;;13.20;99.90;;;;;;4932503;29;20047;-72
2022/08/06 06:14:32;;;;;;;8.20;4.38;;;13.20;99.90;;;;;;4937487;29;20069;-72
2022/08/06 06:17:17;;;;;;;8.25;4.10;;;13.20;99.90;;;;;;4952162;29;20481;-70
2022/08/06 06:20:14;;;;;;;7.68;4.30;;;13.20;99.90;;;;;;4951245;29;20051;-70
2022/08/06 06:22:59;;;;;;;8.38;4.00;;;13.30;99.90;;;;;;4951588;29;20051;-78
2022/08/06 06:25:34;;;;;;;8.43;4.38;;;13.30;99.90;;;;;;4951364;28;20393;-71
2022/08/06 06:28:29;;;;;;;11.25;4.82;;;13.40;99.90;;;;;;4952539;29;20051;-72
2022/08/06 06:31:13;;;;;;;14.50;5.28;;;13.40;99.90;;;;;;4951522;29;20066;-71
2022/08/06 06:34:10;;;;;;;9.25;5.20;;;13.50;99.90;;;;;;4951833;29;20039;-71
2022/08/06 06:36:57;;;;;;;10.93;4.90;;;13.50;99.90;;;;;;4952169;28;20176;-72
2022/08/06 06:39:39;;;;;;;9.20;4.70;;;13.60;99.90;;;;;;4934724;29;20051;-73
2022/08/06 06:42:19;;;;;;;6.57;3.55;;;13.80;99.90;;;;;;4932245;29;20373;-72
2022/08/06 06:44:58;;;;;;;8.65;3.38;;;13.80;99.90;;;;;;4932397;29;20060;-78
2022/08/06 06:47:48;;;;;;;6.55;1.80;;;13.90;99.90;;;;;;4933327;29;20408;-71
2022/08/06 06:50:22;;;;;;;6.50;2.00;;;14.10;99.90;;;;;;4930732;29;20052;-71
2022/08/06 06:52:52;;;;;;;5.68;2.00;;;14.20;99.90;;;;;;4932755;29;20086;-75
2022/08/06 06:55:32;;;;;;;4.88;1.60;;;14.30;99.90;;;;;;4937674;29;20051;-73
2022/08/06 06:58:06;;;;;;;6.13;1.50;;;14.50;99.90;;;;;;4951790;29;20113;-71
2022/08/06 07:00:34;;;;;;;3.78;1.30;;;14.60;99.90;;;;;;4935921;29;20201;-72
2022/08/06 07:03:04;;;;;;;5.18;1.73;;;14.80;99.90;;;;;;4947571;29;20051;-74
2022/08/06 07:05:32;;;;;;;5.85;1.30;;;14.90;99.90;;;;;;4924796;29;20055;-73
2022/08/06 07:07:59;;;;;;;5.97;1.30;;;15.10;99.90;;;;;;4951370;28;20051;-74
2022/08/06 07:10:26;;;;;;;6.55;1.38;;;15.10;99.90;;;;;;4943280;28;20113;-71
2022/08/06 07:12:55;;;;;;;4.32;0.80;;;15.20;99.90;;;;;;4916708;29;20219;-76
2022/08/06 07:15:23;;;;;;;5.18;1.20;;;15.30;99.90;;;;;;4930958;29;20048;-73
2022/08/06 07:17:50;;;;;;;4.50;0.70;;;15.40;99.90;;;;;;4934199;29;20058;-78
2022/08/06 07:20:21;;;;;;;4.65;0.82;;;15.60;99.90;;;;;;4939758;29;20147;-71
2022/08/06 07:22:48;;;;;;;2.90;1.05;;;15.70;99.90;;;;;;4952646;29;20055;-73
2022/08/06 07:25:15;;;;;;;6.85;1.27;;;15.80;99.90;;;;;;4922591;29;20058;-73
2022/08/06 07:27:45;;;;;;;2.88;0.57;;;15.90;99.90;;;;;;4939486;29;20083;-72
2022/08/06 07:30:13;;;;;;;2.83;0.50;;;16.10;99.90;;;;;;4955442;29;20043;-72
2022/08/06 07:32:39;;;;;;;2.65;0.30;;;16.20;99.90;;;;;;4956735;29;20060;-73
2022/08/06 07:35:07;;;;;;;5.47;0.38;;;16.30;99.90;;;;;;4953946;29;20115;-71
2022/08/06 07:37:35;;;;;;;3.55;0.28;;;16.40;99.90;;;;;;4957327;28;20133;-71
2022/08/06 07:40:03;;;;;;;1.10;0.20;;;16.40;99.90;;;;;;4941545;29;20472;-72
2022/08/06 07:42:30;;;;;;;4.00;0.50;;;16.50;99.90;;;;;;4925160;29;20106;-72
2022/08/06 07:45:00;;;;;;;3.92;0.40;;;16.50;99.90;;;;;;4956147;29;20051;-73
2022/08/06 07:47:40;;;;;;;4.32;0.40;;;16.70;99.90;;;;;;4940140;29;20055;-73
2022/08/06 07:50:10;;;;;;;1.70;0.30;;;16.70;99.90;;;;;;4937898;29;20138;-73
2022/08/06 07:52:39;;;;;;;1.85;0.30;;;16.80;99.90;;;;;;4923117;29;20087;-74
2022/08/06 07:55:07;;;;;;;2.95;0.20;;;16.90;99.90;;;;;;4936972;29;20389;-74
2022/08/06 07:57:33;;;;;;;3.35;0.20;;;17.00;99.90;;;;;;4935530;29;20404;-73
2022/08/06 07:59:59;;;;;;;3.33;0.30;;;17.20;99.90;;;;;;4935102;29;20054;-72
2022/08/06 08:02:25;;;;;;;1.50;0.30;;;17.30;99.90;;;;;;4920648;29;20404;-73
2022/08/06 08:07:37;;;;;;;1.52;0.28;;;17.60;99.90;;;;;;4916322;29;20056;-73
2022/08/06 08:10:03;;;;;;;4.13;0.32;;;17.80;99.90;;;;;;4945764;29;20051;-74
2022/08/06 08:12:30;;;;;;;4.30;0.30;;;18.00;99.90;;;;;;4939462;29;20090;-72
2022/08/06 08:15:01;;;;;;;4.22;0.32;;;18.20;99.90;;;;;;4955012;29;20097;-72
2022/08/06 08:17:27;;;;;;;1.77;0.20;;;18.40;99.90;;;;;;4939254;29;20134;-72
2022/08/06 08:19:52;;;;;;;1.65;0.32;;;18.30;99.90;;;;;;4951895;29;20129;-71
2022/08/06 08:22:20;;;;;;;3.45;0.40;;;18.50;99.90;;;;;;4955709;29;20051;-71
2022/08/06 08:24:47;;;;;;;3.25;0.30;;;18.60;99.90;;;;;;4953387;29;20058;-72
2022/08/06 08:27:14;;;;;;;3.00;0.20;;;18.70;99.90;;;;;;4954246;29;20051;-72
2022/08/06 08:29:41;;;;;;;3.55;0.30;;;18.80;99.90;;;;;;4938723;29;20118;-71
2022/08/06 08:32:08;;;;;;;4.72;0.30;;;18.70;99.90;;;;;;4955654;28;20418;-72
2022/08/06 08:34:35;;;;;;;;;;;18.60;99.90;;;;;;4934832;29;20131;-71
2022/08/06 08:37:02;;;;;;;2.50;0.90;;;18.50;99.90;;;;;;4918981;29;20342;-72
2022/08/06 08:39:28;;;;;;;;;;;18.70;99.90;;;;;;4918127;29;20070;-71
2022/08/06 08:42:08;;;;;;;4.93;0.40;;;18.70;99.90;;;;;;4935625;29;20366;-72
2022/08/06 08:44:34;;;;;;;2.13;0.35;;;18.60;99.90;;;;;;4955494;28;20043;-72
2022/08/06 08:47:01;;;;;;;1.48;0.20;;;18.50;99.90;;;;;;4954236;29;20055;-77
2022/08/06 08:49:41;;;;;;;3.35;0.40;;;18.60;99.90;;;;;;4953032;28;20059;-71
2022/08/06 08:52:28;;;;;;;2.60;0.30;;;18.60;99.90;;;;;;4937654;29;20051;-71
2022/08/06 08:54:59;;;;;;;2.20;0.20;;;18.70;99.90;;;;;;4951039;29;20047;-71
2022/08/06 08:57:26;;;;;;;4.20;0.30;;;18.90;99.90;;;;;;4937911;29;20061;-72
2022/08/06 08:59:53;;;;;;;4.82;0.30;;;18.80;99.90;;;;;;4953626;29;20106;-74
2022/08/06 09:02:20;;;;;;;4.00;0.40;;;18.90;99.00;;;;;;4907023;29;20058;-71
2022/08/06 09:04:46;;;;;;;2.30;0.20;;;19.00;99.70;;;;;;4938541;29;20081;-72
2022/08/06 09:07:18;;;;;;;1.08;0.20;;;18.90;99.90;;;;;;4924069;29;20139;-72
2022/08/06 09:09:44;;;;;;;4.13;0.40;;;18.90;99.90;;;;;;4935570;29;20122;-74
2022/08/06 09:12:09;;;;;;;2.47;0.30;;;19.10;99.90;;;;;;4922087;29;20062;-71
2022/08/06 09:14:36;;;;;;;3.10;0.27;;;19.20;99.90;;;;;;4934539;29;20126;-72
2022/08/06 09:17:04;;;;;;;7.03;0.30;;;19.30;98.60;;;;;;4919345;29;20142;-79
2022/08/06 09:19:30;;;;;;;4.80;0.35;;;19.40;97.50;;;;;;4918398;29;20048;-75
2022/08/06 09:21:58;;;;;;;2.10;0.30;;;19.40;97.50;;;;;;4917962;29;20055;-70
2022/08/06 09:24:26;;;;;;;3.03;0.40;;;19.40;96.60;;;;;;4920133;29;20099;-73
2022/08/06 09:27:07;;;;;;;3.92;0.30;;;19.60;98.00;;;;;;4937565;29;20341;-73
2022/08/06 09:29:35;;;;;;;2.47;0.20;;;19.80;98.10;;;;;;4952017;28;20078;-73
2022/08/06 09:32:06;;;;;;;2.15;0.40;;;20.00;97.80;;;;;;4937535;29;20118;-76
2022/08/06 09:34:38;;;;;;;2.75;0.30;;;20.10;96.50;;;;;;4952941;29;20051;-71
2022/08/06 09:37:08;;;;;;;1.52;0.30;;;20.00;96.90;;;;;;4954133;29;20126;-72
2022/08/06 09:39:40;;;;;;;2.27;0.40;;;19.90;96.70;;;;;;4912681;29;20589;-73
2022/08/06 09:42:06;;;;;;;2.72;0.50;;;19.80;96.80;;;;;;4934788;29;20401;-77
2022/08/06 09:44:33;;;;;;;1.65;0.45;;;19.70;95.30;;;;;;4934777;29;20049;-72
2022/08/06 09:47:00;;;;;;;5.32;0.47;;;19.70;95.40;;;;;;4902499;29;20134;-73
2022/08/06 09:49:28;;;;;;;2.88;0.50;;;19.80;96.40;;;;;;4920087;29;20131;-73
2022/08/06 09:52:23;;;;;;;4.00;0.60;;;19.80;96.40;;;;;;4918366;29;20138;-72
2022/08/06 09:54:49;;;;;;;2.22;0.60;;;19.80;95.30;;;;;;4934144;29;20059;-71
2022/08/06 09:57:17;;;;;;;3.28;0.50;;;20.00;95.40;;;;;;4952444;29;20095;-71
2022/08/06 09:59:44;;;;;;;4.73;0.60;;;20.30;93.60;;;;;;4934525;29;20131;-70
2022/08/06 10:02:33;;;;;;;4.07;0.80;;;20.30;93.00;;;;;;4936290;29;20137;-72
2022/08/06 10:05:10;;;;;;;4.80;0.50;;;20.10;92.10;;;;;;4953561;29;20226;-73
2022/08/06 10:07:40;;;;;;;4.13;0.70;;;20.30;93.00;;;;;;4955310;29;20437;-74
2022/08/06 10:10:07;;;;;;;3.47;1.33;;;20.30;93.30;;;;;;4904446;29;20107;-72
2022/08/06 10:12:33;;;;;;;15.75;6.18;;;20.20;93.70;;;;;;4933345;29;20131;-73
2022/08/06 10:14:59;;;;;;;6.40;2.33;;;20.30;94.10;;;;;;4933807;29;20130;-71
2022/08/06 10:17:27;;;;;;;3.92;1.05;;;20.50;93.90;;;;;;4934035;29;20051;-75
2022/08/06 10:20:16;;;;;;;3.03;0.73;;;20.80;93.20;;;;;;4950107;29;20497;-73
2022/08/06 10:22:59;;;;;;;4.60;0.93;;;21.10;92.40;;;;;;4949882;29;20091;-72
2022/08/06 10:25:29;;;;;;;2.72;0.70;;;21.20;91.00;;;;;;4932777;29;20056;-72
2022/08/06 10:27:56;;;;;;;4.35;0.80;;;21.10;90.60;;;;;;4919148;29;20070;-72
2022/08/06 10:30:22;;;;;;;;;;;20.60;90.90;;;;;;4940011;29;20058;-72
2022/08/06 10:32:58;;;;;;;4.32;0.90;;;20.40;92.20;;;;;;4954198;28;19926;-72
2022/08/06 10:35:24;;;;;;;5.03;1.00;;;20.10;92.10;;;;;;4939815;29;20059;-73
2022/08/06 10:38:03;;;;;;;3.85;1.00;;;20.00;93.00;;;;;;4925814;29;20059;-72
2022/08/06 10:40:36;;;;;;;3.08;0.90;;;20.10;93.70;;;;;;4935732;29;20076;-72
2022/08/06 10:43:03;;;;;;;3.60;0.93;;;20.30;93.30;;;;;;4934733;29;20079;-73
2022/08/06 10:45:33;;;;;;;4.00;1.00;;;20.50;92.10;;;;;;4934411;29;20519;-73
2022/08/06 10:48:03;;;;;;;4.47;1.30;;;20.60;86.50;;;;;;4938179;29;20072;-74
2022/08/06 10:50:30;;;;;;;4.95;1.02;;;20.70;89.10;;;;;;4901911;29;20058;-72
2022/08/06 10:52:57;;;;;;;5.45;1.13;;;20.70;86.10;;;;;;4947413;29;20122;-72
2022/08/06 10:55:24;;;;;;;;;;;21.00;87.50;;;;;;4935090;29;20110;-72
2022/08/06 10:57:50;;;;;;;5.47;1.10;;;21.40;89.30;;;;;;4936432;29;19929;-72
2022/08/06 11:00:16;;;;;;;4.50;0.80;;;21.60;85.70;;;;;;4953131;28;20047;-76
2022/08/06 11:03:06;;;;;;;4.37;0.87;;;21.90;87.10;;;;;;4935198;29;20054;-73
2022/08/06 11:05:37;;;;;;;4.05;0.95;;;21.80;85.40;;;;;;4951482;29;20051;-73
2022/08/06 11:08:27;;;;;;;2.75;1.00;;;21.70;84.70;;;;;;4935439;29;20133;-74
2022/08/06 11:11:05;;;;;;;4.78;1.10;;;21.60;84.40;;;;;;4951811;29;20051;-72
2022/08/06 11:13:46;;;;;;;3.78;1.30;;;21.60;82.80;;;;;;4934251;29;20059;-72
2022/08/06 11:16:29;;;;;;;4.07;1.30;;;21.50;85.60;;;;;;4937489;29;20189;-73
2022/08/06 11:19:19;;;;;;;2.83;1.10;;;21.30;86.00;;;;;;4936227;29;20079;-71
2022/08/06 11:21:52;;;;;;;3.80;0.93;;;21.40;87.30;;;;;;4936327;29;20059;-75
2022/08/06 11:24:18;;;;;;;5.60;1.30;;;21.30;87.40;;;;;;4932239;29;20055;-77
2022/08/06 11:26:44;;;;;;;2.90;1.17;;;21.00;86.80;;;;;;4936139;29;20047;-73
2022/08/06 11:29:17;;;;;;;4.18;0.80;;;21.20;87.40;;;;;;4937099;29;20142;-73
2022/08/06 11:31:48;;;;;;;4.43;1.00;;;21.30;87.40;;;;;;4920576;29;20056;-72
2022/08/06 11:34:19;;;;;;;3.95;0.90;;;21.30;86.50;;;;;;4937621;29;20047;-71
2022/08/06 11:36:45;;;;;;;3.08;0.80;;;21.20;84.20;;;;;;4937347;29;20051;-72
2022/08/06 11:39:11;;;;;;;3.03;0.93;;;21.40;85.60;;;;;;4943020;29;20429;-71
2022/08/06 11:41:50;;;;;;;6.05;1.10;;;21.30;83.60;;;;;;4957689;28;20309;-72
2022/08/06 11:44:24;;;;;;;5.85;1.05;;;21.30;83.90;;;;;;4954525;28;20047;-73
2022/08/06 11:47:08;;;;;;;4.88;0.80;;;21.40;85.00;;;;;;4957049;29;20110;-73
2022/08/06 11:49:43;;;;;;;4.68;1.20;;;21.30;85.20;;;;;;4954474;29;20480;-73
2022/08/06 11:52:09;;;;;;;4.38;1.20;;;20.80;86.10;;;;;;4945381;29;20058;-73
2022/08/06 11:54:36;;;;;;;3.22;1.05;;;20.90;87.40;;;;;;4954659;29;20047;-73
2022/08/06 11:57:02;;;;;;;4.07;0.88;;;20.80;87.70;;;;;;4939758;29;20082;-71
2022/08/06 11:59:33;;;;;;;4.97;0.90;;;20.50;89.00;;;;;;4954026;29;20051;-70
2022/08/06 12:02:10;;;;;;;5.28;1.50;;;20.50;88.50;;;;;;4955259;29;20047;-73
2022/08/06 12:04:36;;;;;;;4.15;1.00;;;20.30;89.90;;;;;;4953982;28;20139;-71
2022/08/06 12:07:21;;;;;;;6.07;1.00;;;20.00;90.20;;;;;;4955631;29;20121;-73
2022/08/06 12:09:59;;;;;;;5.50;1.25;;;20.00;90.50;;;;;;4953272;29;20063;-72
2022/08/06 12:12:39;;;;;;;4.40;1.00;;;19.90;90.80;;;;;;4938430;29;20455;-72
2022/08/06 12:15:05;;;;;;;;;;;20.00;90.50;;;;;;4955840;28;20043;-72
2022/08/06 12:17:31;;;;;;;4.93;1.00;;;20.00;90.30;;;;;;4956133;29;19932;-71
2022/08/06 12:20:00;;;;;;;5.25;1.10;;;20.00;90.00;;;;;;4938027;29;20522;-74
2022/08/06 12:22:28;;;;;;;8.25;1.10;;;20.10;89.90;;;;;;4953218;29;20110;-72
2022/08/06 12:24:58;;;;;;;4.70;0.90;;;20.20;90.00;;;;;;4935029;29;20043;-73
2022/08/06 12:27:31;;;;;;;2.90;1.00;;;20.40;90.20;;;;;;4954555;28;20510;-78
2022/08/06 12:29:58;;;;;;;3.22;1.00;;;20.40;90.00;;;;;;4938164;29;20400;-72
2022/08/06 12:32:32;;;;;;;5.07;1.00;;;20.40;88.90;;;;;;4954438;28;20055;-77
2022/08/06 12:35:02;;;;;;;4.78;0.93;;;20.50;88.80;;;;;;4922372;29;20621;-73
2022/08/06 12:37:40;;;;;;;3.67;1.08;;;20.70;89.30;;;;;;4953928;29;20058;-72
2022/08/06 12:40:28;;;;;;;3.50;1.17;;;21.00;88.90;;;;;;4951976;29;20055;-72
2022/08/06 12:43:00;;;;;;;3.08;0.93;;;20.90;85.80;;;;;;4953548;29;20510;-72
2022/08/06 12:45:27;;;;;;;3.92;0.93;;;21.10;86.80;;;;;;4903715;29;20540;-75
2022/08/06 12:48:10;;;;;;;2.92;0.75;;;21.10;85.30;;;;;;4936240;29;20047;-71
2022/08/06 12:50:39;;;;;;;4.15;1.00;;;21.20;84.90;;;;;;4935575;29;20047;-72
2022/08/06 12:53:24;;;;;;;6.63;1.05;;;21.40;85.70;;;;;;4903452;29;20063;-73
2022/08/06 12:55:54;;;;;;;6.97;0.90;;;21.70;85.60;;;;;;4905877;29;20111;-72
2022/08/06 12:58:30;;;;;;;4.68;0.98;;;21.90;82.10;;;;;;4919574;29;20055;-73
2022/08/06 13:00:58;;;;;;;3.92;1.00;;;21.70;81.90;;;;;;4922176;29;20043;-72
2022/08/06 13:03:25;;;;;;;4.70;0.80;;;21.60;80.90;;;;;;4954046;28;20059;-72
2022/08/06 13:05:58;;;;;;;3.47;0.90;;;21.70;81.40;;;;;;4953438;28;20130;-75
2022/08/06 13:08:25;;;;;;;4.57;1.00;;;21.80;82.40;;;;;;4954130;28;20065;-74
2022/08/06 13:10:52;;;;;;;2.78;0.90;;;21.80;83.30;;;;;;4952077;29;20130;-73